Time;durP1;ratioP1;P1;durP2;ratioP2;P2;SDS_P1;SDS_P2;PMS_P1;PMS_P2;Temp;Humidity;BMP_temperature;BMP_pressure;BME280_temperature;BME280_humidity;BME280_pressure;Samples;Min_cycle;Max_cycle;Signal;HPM_P1;HPM_P2
2020/12/04 00:02:54;;;;;;;9.50;4.15;;;;;;;-1.52;57.48;100511.91;10500332;28;20044;-52
2020/12/04 00:07:55;;;;;;;15.18;5.65;;;;;;;-1.68;57.20;100516.56;10499359;28;20052;-51
2020/12/04 00:12:58;;;;;;;10.95;5.07;;;;;;;-1.69;57.22;100504.56;10499704;28;20139;-52
2020/12/04 00:18:00;;;;;;;7.53;3.15;;;;;;;-1.59;57.41;100507.78;10499958;28;20143;-50
2020/12/04 00:23:02;;;;;;;11.07;4.40;;;;;;;-1.49;57.10;100511.84;10500352;28;20044;-52
2020/12/04 00:28:04;;;;;;;13.68;5.53;;;;;;;-1.59;57.26;100510.34;10500802;28;20064;-59
2020/12/04 00:33:06;;;;;;;19.17;6.88;;;;;;;-1.54;57.45;100499.91;10501942;28;20380;-51
2020/12/04 00:38:07;;;;;;;13.68;6.68;;;;;;;-1.49;57.12;100509.25;10498507;28;20135;-52
2020/12/04 00:43:10;;;;;;;12.45;4.85;;;;;;;-1.38;56.80;100511.59;10498480;28;20052;-51
2020/12/04 00:48:12;;;;;;;15.18;5.80;;;;;;;-1.19;56.73;100519.75;10471737;28;20053;-59
2020/12/04 00:53:14;;;;;;;14.60;6.75;;;;;;;-1.23;56.80;100523.28;10455689;28;20497;-50
2020/12/04 00:58:20;;;;;;;15.38;6.35;;;;;;;-1.31;56.91;100526.03;10454178;28;20048;-52
2020/12/04 01:03:22;;;;;;;17.55;6.72;;;;;;;-1.42;56.87;100528.00;10455658;28;20565;-52
2020/12/04 01:08:24;;;;;;;17.15;6.32;;;;;;;-1.37;56.82;100526.19;10492085;28;20052;-52
2020/12/04 01:13:27;;;;;;;23.67;7.95;;;;;;;-1.34;56.98;100517.53;10496976;28;20045;-52
2020/12/04 01:18:28;;;;;;;18.02;7.07;;;;;;;-1.36;57.13;100514.13;10497340;28;20056;-52
2020/12/04 01:23:30;;;;;;;16.38;6.50;;;;;;;-1.31;57.12;100517.47;10496491;28;20040;-52
2020/12/04 01:28:33;;;;;;;18.10;8.32;;;;;;;-1.27;56.83;100508.75;10496963;28;20106;-52
2020/12/04 01:33:34;;;;;;;16.70;7.32;;;;;;;-1.24;56.88;100512.09;10496292;28;20055;-51
2020/12/04 01:38:36;;;;;;;18.58;8.80;;;;;;;-1.27;56.79;100512.19;10498530;28;20048;-52
2020/12/04 01:43:38;;;;;;;14.25;6.55;;;;;;;-1.32;56.51;100516.63;10496060;28;20048;-52
2020/12/04 01:48:40;;;;;;;19.10;7.28;;;;;;;-1.34;56.97;100509.78;10495961;28;20083;-50
2020/12/04 01:53:44;;;;;;;11.32;4.63;;;;;;;-1.29;56.79;100513.97;10496569;28;20052;-50
2020/12/04 01:58:47;;;;;;;14.43;6.32;;;;;;;-1.32;56.90;100508.88;10496250;28;20056;-51
2020/12/04 02:03:48;;;;;;;14.55;6.00;;;;;;;-1.30;56.56;100501.94;10499818;28;20048;-55
2020/12/04 02:08:56;;;;;;;11.68;5.00;;;;;;;-1.29;56.50;100497.63;10495456;28;20067;-50
2020/12/04 02:13:59;;;;;;;21.00;8.10;;;;;;;-1.28;56.82;100494.19;10496047;28;20054;-52
2020/12/04 02:19:00;;;;;;;21.53;7.33;;;;;;;-1.21;56.72;100493.97;10496010;28;20045;-52
2020/12/04 02:24:05;;;;;;;15.65;6.72;;;;;;;-1.20;56.33;100507.72;10494800;28;20294;-50
2020/12/04 02:29:09;;;;;;;23.00;8.18;;;;;;;-1.21;56.62;100509.44;10496627;28;20057;-52
2020/12/04 02:34:11;;;;;;;18.13;5.97;;;;;;;-1.14;56.69;100512.72;10495961;28;20146;-52
2020/12/04 02:39:14;;;;;;;15.70;6.13;;;;;;;-1.14;56.97;100502.41;10496037;28;20052;-52
2020/12/04 02:44:16;;;;;;;18.83;7.00;;;;;;;-1.13;56.67;100506.72;10496356;28;20051;-50
2020/12/04 02:49:20;;;;;;;19.75;6.78;;;;;;;-1.17;57.10;100497.31;10502308;28;20059;-50
2020/12/04 02:54:23;;;;;;;17.70;7.65;;;;;;;-1.12;57.01;100485.16;10502362;28;20053;-50
2020/12/04 02:59:24;;;;;;;18.38;7.53;;;;;;;-1.11;56.66;100486.84;10502689;28;20060;-52
2020/12/04 03:04:26;;;;;;;17.85;6.75;;;;;;;-1.22;56.65;100489.72;10503098;28;20044;-53
2020/12/04 03:09:28;;;;;;;24.20;7.25;;;;;;;-1.34;57.15;100489.16;10502313;28;20362;-52
2020/12/04 03:14:30;;;;;;;18.95;8.25;;;;;;;-1.35;57.42;100484.91;10503315;28;20051;-52
2020/12/04 03:19:32;;;;;;;19.52;7.53;;;;;;;-1.20;57.16;100481.91;10503663;28;20390;-51
2020/12/04 03:24:35;;;;;;;26.48;7.68;;;;;;;-1.12;57.06;100476.59;10502187;28;20045;-51
2020/12/04 03:29:36;;;;;;;23.05;8.10;;;;;;;-1.06;56.84;100486.75;10501096;28;20057;-50
2020/12/04 03:34:38;;;;;;;15.30;7.40;;;;;;;-1.05;57.16;100486.69;10505888;28;20051;-52
2020/12/04 03:39:41;;;;;;;18.73;7.47;;;;;;;-1.00;57.04;100502.94;10501023;28;20056;-52
2020/12/04 03:44:42;;;;;;;18.55;6.88;;;;;;;-1.18;56.45;100504.22;10501629;28;20045;-50
2020/12/04 03:49:44;;;;;;;18.95;6.15;;;;;;;-1.42;57.01;100505.69;10501124;28;20291;-50
2020/12/04 03:54:46;;;;;;;14.20;6.10;;;;;;;-1.51;56.97;100523.94;10499216;28;20389;-50
2020/12/04 03:59:48;;;;;;;16.42;6.68;;;;;;;-1.51;57.32;100529.09;10501058;28;20327;-52
2020/12/04 04:04:50;;;;;;;16.33;6.47;;;;;;;-1.45;57.09;100513.47;10499170;28;20112;-52
2020/12/04 04:09:53;;;;;;;16.00;5.72;;;;;;;-1.32;57.39;100523.50;10500610;28;20478;-51
2020/12/04 04:14:55;;;;;;;17.85;6.35;;;;;;;-1.18;57.10;100522.28;10499148;28;20379;-52
2020/12/04 04:19:56;;;;;;;19.23;6.85;;;;;;;-1.02;56.43;100509.84;10499911;28;20053;-52
2020/12/04 04:24:59;;;;;;;16.23;5.28;;;;;;;-0.91;56.07;100526.81;10498308;28;20135;-50
2020/12/04 04:30:00;;;;;;;21.15;7.18;;;;;;;-0.97;56.39;100509.75;10498093;28;20059;-50
2020/12/04 04:35:02;;;;;;;19.33;6.82;;;;;;;-1.00;55.94;100509.81;10498274;28;20102;-53
2020/12/04 04:40:05;;;;;;;17.48;5.25;;;;;;;-1.00;55.89;100500.34;10498537;28;20059;-50
2020/12/04 04:45:07;;;;;;;18.48;7.53;;;;;;;-0.97;56.07;100510.59;10498337;28;20040;-50
2020/12/04 04:50:08;;;;;;;11.43;4.25;;;;;;;-0.98;55.71;100514.06;10496669;28;20398;-53
2020/12/04 04:55:11;;;;;;;12.18;4.90;;;;;;;-1.16;55.84;100517.09;10497290;28;20056;-52
2020/12/04 05:00:13;;;;;;;13.07;5.43;;;;;;;-1.11;55.90;100514.41;10498199;28;20052;-50
2020/12/04 05:05:15;;;;;;;16.55;6.70;;;;;;;-1.01;55.77;100519.31;10499136;28;20061;-53
2020/12/04 05:10:20;;;;;;;18.27;6.07;;;;;;;-1.09;55.68;100517.78;10500266;28;20048;-53
2020/12/04 05:15:23;;;;;;;19.20;6.95;;;;;;;-1.07;55.87;100526.34;10497635;28;20143;-51
2020/12/04 05:20:24;;;;;;;19.80;7.20;;;;;;;-1.00;55.41;100521.00;10497446;28;20062;-50
2020/12/04 05:25:32;;;;;;;18.83;6.53;;;;;;;-1.10;55.22;100527.28;10497996;28;20101;-50
2020/12/04 05:30:34;;;;;;;22.48;8.00;;;;;;;-1.12;55.08;100529.03;10496961;28;20048;-53
2020/12/04 05:35:36;;;;;;;17.48;6.35;;;;;;;-1.13;55.17;100547.16;10497862;28;20079;-50
2020/12/04 05:40:41;;;;;;;25.90;8.68;;;;;;;-1.12;55.33;100560.00;10497588;28;20067;-52
2020/12/04 05:45:42;;;;;;;18.20;5.97;;;;;;;-1.19;55.46;100559.28;10496974;28;20048;-52
2020/12/04 05:50:44;;;;;;;16.40;6.40;;;;;;;-1.40;55.63;100570.94;10496552;28;20067;-50
2020/12/04 05:55:53;;;;;;;14.18;6.03;;;;;;;-1.63;55.36;100570.63;10496279;28;20064;-52
2020/12/04 06:00:57;;;;;;;20.60;7.40;;;;;;;-1.57;55.74;100570.47;10465505;28;20068;-52
2020/12/04 06:06:07;;;;;;;15.00;6.38;;;;;;;-1.43;55.53;100568.44;10469210;28;20045;-51
2020/12/04 06:11:11;;;;;;;14.30;6.25;;;;;;;-1.36;55.24;100568.28;10496779;28;20051;-51
2020/12/04 06:16:15;;;;;;;19.38;7.72;;;;;;;-1.41;54.82;100577.00;10495337;28;20051;-50
2020/12/04 06:21:46;;;;;;;17.15;5.18;;;;;;;-1.34;55.49;100582.00;10501391;28;20063;-52
2020/12/04 06:26:50;;;;;;;19.38;7.15;;;;;;;-1.40;55.17;100578.69;10503974;28;20428;-50
2020/12/04 06:31:52;;;;;;;19.55;7.57;;;;;;;-1.31;54.92;100585.38;10503802;28;20485;-53
2020/12/04 06:36:53;;;;;;;13.20;6.03;;;;;;;-1.21;55.11;100589.44;10504912;28;20045;-52
2020/12/04 06:41:57;;;;;;;21.40;8.35;;;;;;;-1.27;54.96;100591.31;10503333;28;20381;-52
2020/12/04 06:47:00;;;;;;;12.82;4.40;;;;;;;-1.32;54.64;100600.91;10506799;28;20247;-51
2020/12/04 06:52:13;;;;;;;20.98;8.48;;;;;;;-1.45;54.85;100614.06;10502518;28;20072;-53
2020/12/04 06:57:18;;;;;;;11.93;4.65;;;;;;;-1.31;55.09;100612.91;10503667;28;20489;-51
2020/12/04 07:02:21;;;;;;;17.65;7.80;;;;;;;-1.29;55.01;100626.59;10503665;28;20075;-50
2020/12/04 07:07:24;;;;;;;24.17;6.88;;;;;;;-1.28;54.62;100626.56;10501203;28;20053;-50
2020/12/04 07:12:29;;;;;;;23.05;6.93;;;;;;;-1.30;54.77;100624.91;10501628;28;20048;-52
2020/12/04 07:17:31;;;;;;;20.85;6.60;;;;;;;-1.31;54.86;100608.59;10502106;28;20055;-50
2020/12/04 07:22:33;;;;;;;16.55;6.70;;;;;;;-1.41;54.89;100627.72;10502389;28;20048;-50
2020/12/04 07:27:36;;;;;;;22.42;7.75;;;;;;;-1.38;54.99;100619.94;10501402;28;20393;-53
2020/12/04 07:32:38;;;;;;;18.38;4.70;;;;;;;-1.27;54.84;100624.84;10501899;28;20048;-52
2020/12/04 07:37:39;;;;;;;19.33;5.82;;;;;;;-1.43;54.66;100627.75;10501748;28;20048;-53
2020/12/04 07:42:42;;;;;;;13.73;5.85;;;;;;;-1.41;55.02;100620.84;10500115;28;20076;-52
2020/12/04 07:47:44;;;;;;;25.30;8.83;;;;;;;-1.36;55.08;100610.41;10501448;28;20044;-51
2020/12/04 07:52:52;;;;;;;21.77;8.50;;;;;;;-1.11;54.95;100621.03;10499375;28;20048;-54
2020/12/04 07:58:06;;;;;;;19.42;6.28;;;;;;;-0.95;54.58;100616.41;10459627;28;20057;-52
2020/12/04 08:03:11;;;;;;;17.63;7.53;;;;;;;-0.99;54.47;100625.91;10458644;28;20048;-52
2020/12/04 08:08:19;;;;;;;28.17;9.02;;;;;;;-1.02;54.75;100631.16;10487917;28;20310;-51
2020/12/04 08:13:25;;;;;;;24.92;7.68;;;;;;;-1.00;54.78;100621.66;10468976;28;20047;-52
2020/12/04 08:18:29;;;;;;;26.25;8.45;;;;;;;-0.85;54.81;100629.94;10461018;28;20398;-50
2020/12/04 08:23:31;;;;;;;21.63;9.73;;;;;;;-0.75;54.53;100629.66;10460327;28;20087;-51
2020/12/04 08:28:34;;;;;;;33.00;9.70;;;;;;;-0.66;54.68;100636.34;10460526;28;20045;-52
2020/12/04 08:33:40;;;;;;;25.88;8.95;;;;;;;-0.60;54.38;100656.00;10459413;28;20072;-51
2020/12/04 08:38:49;;;;;;;23.08;9.48;;;;;;;-0.67;54.89;100647.56;10458177;28;20057;-53
2020/12/04 08:43:52;;;;;;;24.83;9.55;;;;;;;-0.77;54.56;100653.81;10493713;28;20170;-51
2020/12/04 08:48:54;;;;;;;19.55;7.85;;;;;;;-0.70;54.55;100657.97;10498114;28;20052;-54
2020/12/04 08:53:55;;;;;;;21.70;10.05;;;;;;;-0.60;54.82;100649.09;10498510;28;20052;-51
2020/12/04 08:58:58;;;;;;;25.65;11.00;;;;;;;-0.65;54.85;100655.25;10497956;28;20473;-52
2020/12/04 09:03:59;;;;;;;25.52;10.65;;;;;;;-0.60;54.52;100654.28;10497995;28;20135;-54
2020/12/04 09:09:01;;;;;;;21.77;9.68;;;;;;;-0.62;54.58;100656.03;10500058;28;20542;-51
2020/12/04 09:14:04;;;;;;;23.30;9.52;;;;;;;-0.70;54.85;100668.31;10498014;28;20040;-51
2020/12/04 09:19:05;;;;;;;20.50;8.32;;;;;;;-0.64;54.80;100668.16;10496538;28;20469;-52
2020/12/04 09:24:07;;;;;;;24.42;11.05;;;;;;;-0.62;54.87;100662.94;10497149;28;20047;-51
2020/12/04 09:29:09;;;;;;;22.98;9.82;;;;;;;-0.48;54.62;100676.38;10497512;28;20059;-50
2020/12/04 09:34:12;;;;;;;40.58;17.95;;;;;;;-0.48;54.53;100666.88;10498065;28;20044;-51
2020/12/04 09:39:13;;;;;;;29.35;12.48;;;;;;;-0.39;54.37;100663.25;10498616;28;20388;-52
2020/12/04 09:44:16;;;;;;;27.10;10.38;;;;;;;-0.35;54.56;100682.09;10499099;28;20429;-54
2020/12/04 09:49:17;;;;;;;26.38;11.35;;;;;;;-0.32;54.09;100671.69;10499264;28;20045;-51
2020/12/04 09:54:19;;;;;;;26.50;10.65;;;;;;;-0.32;54.48;100674.25;10501586;28;20053;-53
2020/12/04 09:59:22;;;;;;;18.73;7.22;;;;;;;-0.42;54.29;100673.66;10508055;28;20048;-58
2020/12/04 10:04:25;;;;;;;27.67;11.73;;;;;;;-0.62;54.43;100675.84;10507025;28;20055;-53
2020/12/04 10:09:28;;;;;;;23.42;8.45;;;;;;;-0.50;54.43;100671.22;10506071;28;20467;-51
2020/12/04 10:14:33;;;;;;;27.92;11.40;;;;;;;-0.37;54.00;100664.06;10504714;28;20048;-58
2020/12/04 10:19:36;;;;;;;24.83;10.07;;;;;;;-0.26;54.37;100650.84;10507578;28;20154;-60
2020/12/04 10:24:40;;;;;;;23.63;10.80;;;;;;;-0.07;54.27;100664.16;10507784;28;20040;-51
2020/12/04 10:29:42;;;;;;;15.60;6.80;;;;;;;-0.10;53.30;100652.16;10506121;28;20389;-53
2020/12/04 10:34:44;;;;;;;18.58;7.55;;;;;;;-0.25;54.00;100657.72;10504913;28;20045;-51
2020/12/04 10:39:46;;;;;;;25.17;12.63;;;;;;;-0.18;53.81;100645.50;10503648;28;20135;-51
2020/12/04 10:44:49;;;;;;;22.02;9.70;;;;;;;-0.12;53.61;100656.53;10505210;28;20403;-54
2020/12/04 10:49:51;;;;;;;23.63;10.15;;;;;;;0.01;53.58;100657.06;10503918;28;20062;-51
2020/12/04 10:54:52;;;;;;;25.65;10.32;;;;;;;0.05;53.38;100662.97;10503808;28;20055;-52
2020/12/04 10:59:55;;;;;;;24.85;10.40;;;;;;;0.07;53.75;100667.22;10504696;28;20786;-53
2020/12/04 11:10:16;;;;;;;24.08;9.85;;;;;;;0.26;54.12;100658.97;10502563;28;20397;-52
2020/12/04 11:15:19;;;;;;;23.00;9.82;;;;;;;0.37;53.58;100665.56;10502798;28;20048;-52
2020/12/04 11:20:22;;;;;;;17.83;7.15;;;;;;;0.35;53.24;100667.31;10503502;28;20084;-52
2020/12/04 11:25:24;;;;;;;22.42;8.90;;;;;;;0.34;53.51;100667.34;10502815;28;20145;-51
2020/12/04 11:30:26;;;;;;;23.20;9.43;;;;;;;0.36;53.97;100676.78;10501648;28;20062;-51
2020/12/04 11:35:28;;;;;;;24.73;10.25;;;;;;;0.35;53.50;100676.84;10502106;28;20056;-53
2020/12/04 11:40:30;;;;;;;19.58;9.30;;;;;;;0.53;53.90;100678.06;10502077;28;20052;-51
2020/12/04 11:45:32;;;;;;;21.23;10.20;;;;;;;0.62;53.35;100685.56;10501806;28;20052;-52
2020/12/04 11:50:34;;;;;;;25.08;10.57;;;;;;;0.55;53.84;100677.09;10500331;28;20075;-52
2020/12/04 11:55:35;;;;;;;22.92;9.43;;;;;;;0.69;53.28;100671.53;10501450;28;20064;-53
2020/12/04 12:00:38;;;;;;;19.65;8.48;;;;;;;0.79;53.28;100674.72;10502046;28;20488;-54
2020/12/04 12:05:40;;;;;;;18.70;9.45;;;;;;;0.70;53.38;100675.81;10502865;28;20048;-54
2020/12/04 12:10:42;;;;;;;22.42;9.57;;;;;;;0.72;53.45;100668.88;10501820;28;20059;-51
2020/12/04 12:15:44;;;;;;;19.35;9.02;;;;;;;0.53;53.63;100672.88;10500881;28;20041;-58
2020/12/04 12:20:46;;;;;;;17.70;7.53;;;;;;;0.48;53.76;100672.16;10501439;28;20056;-52
2020/12/04 12:25:47;;;;;;;19.83;8.35;;;;;;;0.48;53.54;100675.59;10500400;28;20045;-57
2020/12/04 12:30:50;;;;;;;24.90;10.40;;;;;;;0.61;53.53;100673.50;10500403;28;20126;-52
2020/12/04 12:35:51;;;;;;;25.02;11.75;;;;;;;0.66;53.91;100676.81;10499340;28;20062;-52
2020/12/04 12:40:53;;;;;;;25.20;11.07;;;;;;;0.63;53.63;100676.91;10499511;28;20036;-52
2020/12/04 12:45:56;;;;;;;23.77;9.85;;;;;;;0.61;53.25;100691.59;10498682;28;20863;-54
2020/12/04 12:50:57;;;;;;;22.30;10.95;;;;;;;0.60;53.80;100693.34;10499102;28;20045;-52
2020/12/04 12:55:59;;;;;;;24.35;9.57;;;;;;;0.56;53.70;100690.91;10499217;28;20067;-52
2020/12/04 13:01:02;;;;;;;23.42;10.40;;;;;;;0.57;53.93;100695.19;10499092;28;20070;-52
2020/12/04 13:06:03;;;;;;;24.33;10.65;;;;;;;0.58;54.12;100694.28;10499186;28;20059;-54
2020/12/04 13:11:05;;;;;;;23.23;9.82;;;;;;;0.55;53.60;100695.22;10499773;28;20059;-52
2020/12/04 13:16:08;;;;;;;25.83;11.13;;;;;;;0.34;53.97;100696.69;10500087;28;20497;-51
2020/12/04 13:21:10;;;;;;;20.92;9.35;;;;;;;0.30;54.34;100692.47;10501495;28;20485;-51
2020/12/04 13:26:37;;;;;;;21.33;8.98;;;;;;;0.36;54.35;100692.28;10501418;28;20128;-54
2020/12/04 13:31:36;;;;;;;21.10;8.93;;;;;;;0.47;54.03;100707.53;10498931;28;20048;-56
2020/12/04 13:36:38;;;;;;;24.70;9.15;;;;;;;0.56;53.96;100716.78;10498704;28;20492;-54
2020/12/04 13:41:39;;;;;;;20.92;9.13;;;;;;;0.59;54.19;100727.06;10497813;28;20370;-55
2020/12/04 13:46:42;;;;;;;18.17;8.90;;;;;;;0.45;54.12;100725.66;10499214;28;20051;-56
2020/12/04 13:51:44;;;;;;;29.55;9.10;;;;;;;0.37;54.03;100730.22;10499625;28;20404;-54
2020/12/04 13:56:46;;;;;;;20.70;9.13;;;;;;;0.38;54.40;100726.72;10498273;28;20526;-51
2020/12/04 14:01:53;;;;;;;25.30;9.27;;;;;;;0.38;54.40;100723.31;10498351;28;20049;-52
2020/12/04 14:06:58;;;;;;;23.42;9.60;;;;;;;0.41;54.20;100723.22;10497624;28;20055;-52
2020/12/04 14:11:59;;;;;;;24.58;9.68;;;;;;;0.40;54.67;100721.50;10497604;28;20057;-53
2020/12/04 14:17:02;;;;;;;25.60;9.27;;;;;;;0.38;54.35;100721.56;10470286;28;20045;-60
2020/12/04 14:22:04;;;;;;;23.35;9.73;;;;;;;0.36;54.21;100715.56;10455693;28;20060;-55
2020/12/04 14:27:06;;;;;;;18.27;9.05;;;;;;;0.45;54.04;100725.66;10455411;28;20049;-52
2020/12/04 14:32:09;;;;;;;19.48;9.15;;;;;;;0.44;54.02;100723.97;10454671;28;20143;-53
2020/12/04 14:37:10;;;;;;;20.25;7.72;;;;;;;0.49;54.37;100715.25;10454316;28;20110;-52
2020/12/04 14:42:12;;;;;;;18.77;8.35;;;;;;;0.41;53.99;100718.06;10481067;28;20059;-54
2020/12/04 14:47:15;;;;;;;22.08;9.45;;;;;;;0.37;53.94;100717.28;10473470;28;20049;-51
2020/12/04 14:52:16;;;;;;;24.63;10.35;;;;;;;0.53;53.73;100724.63;10504322;28;20147;-53
2020/12/04 14:57:19;;;;;;;21.17;9.07;;;;;;;0.40;54.18;100717.22;10503155;28;20068;-51
2020/12/04 15:02:24;;;;;;;22.95;9.77;;;;;;;0.33;54.33;100720.81;10490136;28;20052;-51
2020/12/04 15:07:26;;;;;;;23.95;9.13;;;;;;;0.37;53.85;100722.47;10488836;28;20078;-51
2020/12/04 15:12:28;;;;;;;19.80;8.73;;;;;;;0.41;54.24;100718.88;10502652;28;20140;-52
2020/12/04 15:17:31;;;;;;;26.70;10.73;;;;;;;0.60;54.14;100714.06;10503399;28;20048;-53
2020/12/04 15:22:33;;;;;;;21.85;9.18;;;;;;;0.55;53.95;100734.03;10490972;28;20095;-51
2020/12/04 15:27:34;;;;;;;20.45;9.23;;;;;;;0.60;53.50;100723.56;10461764;28;20056;-51
2020/12/04 15:32:37;;;;;;;17.70;7.97;;;;;;;0.60;53.44;100728.75;10461558;28;20061;-51
2020/12/04 15:37:41;;;;;;;23.00;10.27;;;;;;;0.59;54.18;100722.72;10460663;28;20475;-51
2020/12/04 15:42:42;;;;;;;19.52;7.97;;;;;;;0.71;53.90;100721.53;10484382;28;20138;-53
2020/12/04 15:47:45;;;;;;;21.90;9.82;;;;;;;0.58;53.53;100726.19;10501608;28;20105;-51
2020/12/04 15:52:47;;;;;;;22.17;7.72;;;;;;;0.50;54.14;100738.50;10499994;28;20060;-51
2020/12/04 15:57:49;;;;;;;20.05;9.25;;;;;;;0.55;53.77;100740.94;10501587;28;20063;-50
2020/12/04 16:02:51;;;;;;;20.58;10.60;;;;;;;0.59;53.90;100740.00;10500598;28;20114;-51
2020/12/04 16:07:53;;;;;;;22.02;10.00;;;;;;;0.65;53.46;100742.41;10500722;28;20040;-50
2020/12/04 16:12:55;;;;;;;21.65;8.80;;;;;;;0.60;53.45;100745.09;10499864;28;20052;-51
2020/12/04 16:17:58;;;;;;;20.98;7.88;;;;;;;0.54;53.74;100729.75;10499581;28;20048;-52
2020/12/04 16:23:00;;;;;;;21.75;7.68;;;;;;;0.47;53.57;100737.72;10500376;28;20071;-51
2020/12/04 16:28:01;;;;;;;23.60;8.63;;;;;;;0.26;54.03;100729.66;10500466;28;20430;-53
2020/12/04 16:33:04;;;;;;;26.95;10.07;;;;;;;0.18;53.83;100727.25;10498999;28;20048;-51
2020/12/04 16:38:07;;;;;;;13.85;6.20;;;;;;;0.19;54.02;100715.19;10499811;28;20064;-53
2020/12/04 16:43:09;;;;;;;19.48;9.05;;;;;;;0.16;53.70;100726.47;10500384;28;20485;-53
2020/12/04 16:48:12;;;;;;;25.20;10.10;;;;;;;0.07;54.25;100725.84;10499369;28;20037;-51
2020/12/04 16:53:13;;;;;;;26.93;11.47;;;;;;;0.18;54.26;100736.75;10498815;28;20051;-50
2020/12/04 16:58:15;;;;;;;20.98;8.10;;;;;;;0.30;54.35;100735.59;10498382;28;20547;-50
2020/12/04 17:03:18;;;;;;;18.23;7.15;;;;;;;0.28;54.10;100737.34;10499464;28;20062;-53
2020/12/04 17:08:21;;;;;;;18.02;8.07;;;;;;;0.17;54.49;100735.06;10497883;28;20048;-51
2020/12/04 17:13:22;;;;;;;20.63;8.45;;;;;;;-0.12;54.76;100744.41;10497948;28;20045;-53
2020/12/04 17:18:25;;;;;;;21.45;7.97;;;;;;;-0.21;55.34;100741.19;10498791;28;20087;-51
2020/12/04 17:23:27;;;;;;;16.83;7.95;;;;;;;-0.28;55.37;100735.31;10496874;28;20075;-52
2020/12/04 17:28:30;;;;;;;25.60;10.35;;;;;;;-0.21;55.57;100739.47;10497424;28;20045;-51
2020/12/04 17:33:33;;;;;;;24.25;9.15;;;;;;;-0.18;55.74;100738.53;10498479;28;20048;-53
2020/12/04 17:38:35;;;;;;;28.80;10.37;;;;;;;-0.16;55.46;100739.34;10501687;28;20076;-53
2020/12/04 17:43:36;;;;;;;22.48;9.43;;;;;;;-0.24;55.20;100740.38;10498597;28;20135;-53
2020/12/04 17:48:39;;;;;;;15.57;5.82;;;;;;;-0.35;55.65;100741.50;10497857;28;20132;-51
2020/12/04 17:53:41;;;;;;;25.80;9.85;;;;;;;-0.42;55.80;100756.31;10497346;28;20090;-54
2020/12/04 17:58:42;;;;;;;19.73;7.13;;;;;;;-0.36;55.67;100745.00;10497422;28;20385;-53
2020/12/04 18:03:45;;;;;;;23.23;11.02;;;;;;;-0.44;55.81;100752.91;10497743;28;20044;-52
2020/12/04 18:08:46;;;;;;;18.70;8.32;;;;;;;-0.50;55.95;100759.06;10497406;28;20048;-51
2020/12/04 18:13:48;;;;;;;18.95;6.88;;;;;;;-0.37;55.73;100774.28;10498700;28;20139;-51
2020/12/04 18:18:51;;;;;;;14.30;5.78;;;;;;;-0.34;55.36;100769.91;10505205;28;20131;-52
2020/12/04 18:23:52;;;;;;;20.15;8.60;;;;;;;-0.37;55.53;100774.28;10485128;28;20060;-51
2020/12/04 18:28:54;;;;;;;22.17;6.75;;;;;;;-0.37;55.18;100776.84;10464168;28;20041;-52
2020/12/04 18:33:57;;;;;;;20.48;7.75;;;;;;;-0.29;55.18;100773.22;10499274;28;20060;-53
2020/12/04 18:38:58;;;;;;;21.83;8.07;;;;;;;-0.26;54.63;100780.06;10504396;28;20515;-52
2020/12/04 18:44:00;;;;;;;21.80;9.15;;;;;;;-0.17;54.81;100779.84;10504664;28;20487;-52
2020/12/04 18:49:03;;;;;;;19.17;8.57;;;;;;;-0.07;54.27;100778.72;10502899;28;20044;-52
2020/12/04 18:54:05;;;;;;;12.83;5.80;;;;;;;0.01;54.12;100777.72;10503833;28;20063;-53
2020/12/04 18:59:06;;;;;;;16.50;7.78;;;;;;;-0.15;53.88;100785.00;10502742;28;20090;-52
2020/12/04 19:04:09;;;;;;;18.10;7.50;;;;;;;-0.24;53.86;100781.72;10503131;28;20504;-53
2020/12/04 19:09:11;;;;;;;14.00;5.57;;;;;;;-0.21;53.52;100783.38;10462871;28;20045;-55
2020/12/04 19:14:13;;;;;;;16.75;7.10;;;;;;;-0.42;53.57;100786.47;10491478;28;20389;-55
2020/12/04 19:19:15;;;;;;;18.48;7.28;;;;;;;-0.54;53.85;100788.44;10503411;28;20044;-52
2020/12/04 19:24:17;;;;;;;25.38;9.18;;;;;;;-0.49;53.82;100793.50;10502032;28;20059;-52
2020/12/04 19:29:19;;;;;;;18.42;7.82;;;;;;;-0.54;53.69;100800.50;10502480;28;20063;-52
2020/12/04 19:34:22;;;;;;;19.42;7.60;;;;;;;-0.63;53.99;100803.28;10500938;28;20145;-51
2020/12/04 19:39:24;;;;;;;15.00;6.20;;;;;;;-0.57;54.18;100793.66;10502772;28;20481;-52
2020/12/04 19:44:26;;;;;;;18.15;8.38;;;;;;;-0.61;54.11;100806.69;10503208;28;20052;-53
2020/12/04 19:49:28;;;;;;;15.57;5.57;;;;;;;-0.66;54.64;100806.78;10503929;28;20048;-52
2020/12/04 19:54:30;;;;;;;18.35;8.02;;;;;;;-0.66;54.43;100798.19;10503036;28;20150;-54
2020/12/04 19:59:32;;;;;;;22.83;7.28;;;;;;;-0.64;54.77;100812.78;10506144;28;20052;-52
2020/12/04 20:04:34;;;;;;;26.60;8.55;;;;;;;-0.65;54.89;100821.38;10501288;28;20144;-52
2020/12/04 20:09:37;;;;;;;13.65;4.78;;;;;;;-0.62;54.94;100834.22;10501539;28;20396;-52
2020/12/04 20:14:39;;;;;;;16.23;5.60;;;;;;;-0.68;54.89;100834.34;10500212;28;20048;-52
2020/12/04 20:19:41;;;;;;;8.90;3.80;;;;;;;-0.66;54.92;100830.00;10500536;28;20367;-53
2020/12/04 20:24:43;;;;;;;15.18;4.60;;;;;;;-0.65;54.91;100833.44;10501296;28;20076;-52
2020/12/04 20:29:45;;;;;;;20.08;7.88;;;;;;;-0.63;55.10;100829.09;10501509;28;20151;-52
2020/12/04 20:34:47;;;;;;;21.40;7.30;;;;;;;-0.51;54.61;100844.34;10499256;28;20063;-53
2020/12/04 20:39:49;;;;;;;16.25;8.30;;;;;;;-0.49;54.73;100838.28;10499207;28;20052;-51
2020/12/04 20:44:51;;;;;;;18.42;8.13;;;;;;;-0.47;54.79;100846.81;10501293;28;20139;-54
2020/12/04 20:49:57;;;;;;;20.52;8.00;;;;;;;-0.45;54.78;100845.94;10500844;28;20048;-52
2020/12/04 20:54:59;;;;;;;19.77;8.32;;;;;;;-0.51;55.17;100849.50;10498555;28;20370;-52
2020/12/04 21:00:00;;;;;;;17.25;8.18;;;;;;;-0.44;55.08;100850.22;10499101;28;20068;-51
2020/12/04 21:05:03;;;;;;;20.95;9.38;;;;;;;-0.39;54.68;100843.25;10498165;28;20060;-52
2020/12/04 21:10:05;;;;;;;12.23;4.10;;;;;;;-0.38;54.64;100855.25;10498209;28;20484;-51
2020/12/04 21:15:06;;;;;;;22.40;7.72;;;;;;;-0.43;54.77;100857.09;10499109;28;20131;-53
2020/12/04 21:20:09;;;;;;;14.25;5.43;;;;;;;-0.51;55.15;100844.34;10497718;28;20113;-53
2020/12/04 21:25:11;;;;;;;20.52;8.85;;;;;;;-0.60;55.55;100858.28;10499334;28;20044;-52
2020/12/04 21:30:12;;;;;;;24.38;9.40;;;;;;;-0.60;55.34;100866.03;10498779;28;20071;-53
2020/12/04 21:35:15;;;;;;;19.33;8.02;;;;;;;-0.59;55.11;100848.81;10499164;28;20044;-57
2020/12/04 21:40:17;;;;;;;11.60;4.20;;;;;;;-0.59;55.46;100869.47;10501981;28;20056;-53
2020/12/04 21:45:18;;;;;;;21.35;7.05;;;;;;;-0.68;55.74;100859.34;10498484;28;20044;-53
2020/12/04 21:50:21;;;;;;;24.60;8.07;;;;;;;-0.66;55.44;100861.00;10502505;28;20048;-54
2020/12/04 21:55:22;;;;;;;12.18;4.80;;;;;;;-0.80;56.01;100868.16;10504572;28;20048;-52
2020/12/04 22:00:24;;;;;;;11.50;5.00;;;;;;;-0.96;56.54;100858.13;10506236;28;20144;-53
2020/12/04 22:05:27;;;;;;;15.32;5.88;;;;;;;-0.94;56.67;100851.22;10505080;28;20048;-54
2020/12/04 22:10:28;;;;;;;10.90;4.22;;;;;;;-0.88;56.21;100859.75;10506171;28;20068;-53
2020/12/04 22:15:30;;;;;;;22.98;7.60;;;;;;;-0.84;56.45;100853.63;10506120;28;20052;-53
2020/12/04 22:20:32;;;;;;;9.68;3.13;;;;;;;-0.83;56.51;100853.63;10506530;28;20056;-54
2020/12/04 22:25:34;;;;;;;17.20;7.68;;;;;;;-0.87;56.42;100858.84;10507135;28;20044;-53
2020/12/04 22:30:36;;;;;;;14.88;6.05;;;;;;;-1.00;56.70;100855.66;10507661;28;20059;-52
2020/12/04 22:35:38;;;;;;;15.20;4.97;;;;;;;-1.05;57.36;100848.00;10505704;28;20044;-52
2020/12/04 22:40:40;;;;;;;21.13;8.35;;;;;;;-1.04;56.83;100848.88;10505490;28;20048;-53
2020/12/04 22:45:42;;;;;;;17.58;5.20;;;;;;;-1.00;56.96;100842.75;10504332;28;20040;-52
2020/12/04 22:50:44;;;;;;;17.98;7.00;;;;;;;-1.11;57.52;100840.38;10503634;28;20075;-54
2020/12/04 22:55:46;;;;;;;12.88;4.25;;;;;;;-1.11;57.20;100848.09;10503627;28;20517;-52
2020/12/04 23:00:48;;;;;;;12.98;5.60;;;;;;;-1.22;57.80;100839.75;10503218;28;20055;-51